Portada
METAR-TAF:

METAR-TAF

Aeroports :

Lleó, Espanya

latitud: 42-35N, longitud: 005-39W, altitud: 926 m

Observació

L'informe es va fer fa 22 minuts, a les 17:00 UTC
Vent 12 kt del Nord/Nord-Est, variant entre Nord i Est/Nord-Est
Temperatura 17°C
Humitat 55%
Pressió 1019 hPa
Visibilitat 10 km o més
sense núvols per sota de 1500 mi sense presència de cumulonimbus.

METAR: LELN 191700Z 03012KT 360V060 CAVOK 17/08 Q1019

Hora: 19:22 (17:22 UTC)

Pronòstic

L'informe es va fer fa 3 hores i 22 minuts, a les 14:00 UTC
Pronòstic vàlid del 19 a les 15 UTC al 19 a les 24 UTC
Vent 14 kt del Nord-Est
Visibilitat 10 km o més
sense núvols per sota de 1500 mi sense presència de cumulonimbus.
Probabilitat 40% :
Temporalment
l' 19 a les 15 UTC al 19 a les 18 UTC
Vent 16 kt del Nord-Est amb ràfegues de 26 kt

TAF: LELN 191400Z 1915/1924 05014KT CAVOK PROB40 TEMPO 1915/1918 05016G26KT

Observacions i pronòstics meteorològics de més de 4000 aeroports (METAR i TAF).

Les estacions disponibles són els punts grocs i vermells al mapa.

Posi el ratolí al punt desitjat per veure el nom de l'estació.

Feu clic per veure les observacions i els pronòstics meteorològics.

Per canviar el mapa: feu clic els botons verds amb una creu de color negre per apropar; al botó verd amb un guió per allunyar la imatge; o en les fletxes verdes per a mapes adjacents.


METAR-TAF: